Have a Safe July 4th! 

Flight Track Log - Related Links

Times and Time Zones

All times are in EDT time to prevent confusion due to time zone crossing. See the UCA3596 flight status page for this flight to view local times or setup timezone preferences in your user account.

Time Position Orientation Groundspeed Altitude Reporting Facility
EDT Latitude Longitude Course Direction KTS MPH feet Rate Location/Type
Fri 01:24:00 PM 39.3327 -77.2928 19° North  Level Estimated
Fri 01:25:00 PM 39.3969 -77.2647 19° North  Level Estimated
Fri 01:26:00 PM 39.4611 -77.2367 19° North  Level Estimated
Fri 01:27:00 PM 39.5253 -77.2085 19° North  Level Estimated
Fri 01:28:00 PM 39.5895 -77.1803 19° North  Level Estimated
Fri 01:29:00 PM 39.6536 -77.1521 19° North  Level Estimated
Fri 01:30:00 PM 39.7178 -77.1238 19° North  Level Estimated
Fri 01:31:00 PM 39.7819 -77.0954 19° North  Level Estimated
Fri 01:32:00 PM 39.8461 -77.0670 19° North  Level Estimated
Fri 01:33:00 PM 39.9102 -77.0386 19° North  Level Estimated
Fri 01:34:00 PM 39.9743 -77.0101 19° North  Level Estimated
Fri 01:35:00 PM 40.0384 -76.9815 19° North  Level Estimated
Fri 01:36:00 PM 40.1026 -76.9529 19° North  Level Estimated
Fri 01:37:00 PM 40.1667 -76.9242 19° North  Level Estimated
Fri 01:38:00 PM 40.2308 -76.8955 19° North  Level Estimated
Fri 01:39:00 PM 40.2949 -76.8667 19° North  Level Estimated
Fri 01:40:00 PM 40.3590 -76.8379 19° North  Level Estimated
Fri 01:41:00 PM 40.4230 -76.8090 19° North  Level Estimated
Fri 01:42:00 PM 40.4871 -76.7800 19° North  Level Estimated
Fri 01:43:00 PM 40.5512 -76.7510 19° North  Level Estimated
Fri 01:44:00 PM 40.6152 -76.7220 19° North  Level Estimated
Fri 01:45:00 PM 40.6793 -76.6928 19° North  Level Estimated
Fri 01:46:00 PM 40.7433 -76.6637 19° North  Level Estimated
Fri 01:47:00 PM 40.8074 -76.6345 19° North  Level Estimated
Fri 01:48:00 PM 40.8714 -76.6052 19° North  Level Estimated
Fri 01:49:00 PM 40.9354 -76.5758 19° North  Level Estimated
Fri 01:50:00 PM 40.9994 -76.5464 19° North  Level Estimated
Fri 01:51:00 PM 41.0634 -76.5170 19° North  Level Estimated
Fri 01:52:00 PM 41.1274 -76.4875 19° North  Level Estimated
Fri 01:53:00 PM 41.1914 -76.4579 19° North  Level Estimated
Fri 01:54:00 PM 41.2554 -76.4283 19° North  Level Estimated
Fri 01:55:00 PM 41.3194 -76.3986 19° North  Level Estimated
Fri 01:56:00 PM 41.3834 -76.3689 19° North  Level Estimated
Fri 01:57:00 PM 41.4473 -76.3391 19° North  Level Estimated
Fri 01:58:00 PM 41.5113 -76.3092 19° North  Level Estimated
Fri 01:59:00 PM 41.5740 -76.2799 19° North  Level Estimated
Fri 02:00:00 PM 41.6367 -76.2505 19° North  Level Estimated
Fri 02:01:00 PM 41.6994 -76.2210 19° North  Level Estimated
Fri 02:02:00 PM 41.7621 -76.1915 19° North  Level Estimated
Fri 02:03:00 PM 41.8248 -76.1619 19° North  Level Estimated
Fri 02:04:00 PM 41.8875 -76.1323 19° North  Level Estimated
Fri 02:05:00 PM 41.9501 -76.1026 19° North  Level Estimated
Fri 02:06:00 PM 42.0128 -76.0729 19° North  Level Estimated
Fri 02:07:00 PM 42.0755 -76.0431 19° North  Level Estimated
Fri 02:08:00 PM 42.1381 -76.0132 19° North  Level Estimated
Fri 02:09:00 PM 42.2007 -75.9833 19° North  Level Estimated
Fri 02:10:00 PM 42.2084 -75.9796 20° North  Level Estimated
Fri 02:11:00 PM 42.2084 -75.9796 35° Northeast  Level Estimated
Fri 02:12:00 PM 42.2084 -75.9796 35° Northeast  Level Estimated
Fri 02:13:00 PM 42.2084 -75.9796 35° Northeast  Level Estimated
Fri 02:14:00 PM 42.2084 -75.9796 35° Northeast  Level Estimated
Fri 02:15:00 PM 42.2084 -75.9796 35° Northeast  Level Estimated
Fri 02:16:00 PM 42.2084 -75.9796 35° Northeast  Level Estimated
Fri 02:17:00 PM 42.2084 -75.9796 35° Northeast  Level Estimated
Fri 02:18:00 PM 42.2084 -75.9796 35° Northeast  Level Estimated

Login

Don't have an account? Register now (free) for customized features, flight alerts, and more!